Saint Clement, Missouri
Current Conditions -  °F | °C
As of 4:35 AM on Tuesday 27 Jan 2015 (Local Time) from KPPQ Reporting Station
Clear Clear  
Wind Chill: 29°   Ceiling: Unl
Heat Index: 36°   Visibility: 10mi
Dew Point: 33°   Wind: 8mph
Humidity: 89%   Direction: 340°NNW
Pressure: 30.01"   Gusts: NA
Location:  39.321°N, 91.1912°W
Report Text: KPPQ 271035Z AUTO 34007KT 10SM CLR 02/00 A3001 RMK AO2 T00210004
Loading
Personal Weather Stations






























Interactive Weather Map New forecast layout! Learn more

10-Day Weather Forecast

Advertisements
Track Severe Weather on mobile